»·PEaware :: JBU717 KRDD-KPDX

JBU717 :: KRDD-KPDX

FLIGHT INFORMATION

Flight Status: Arrived
Operator:
JetBlue Airways
More flights by this operator :: More flights under this callsign
Pilot: Ty S. (2873)
Aircraft: AIRBUS A321
(A321)
More flights by this aircraft type
Origin: KRDD Redding Mun
United States
Destination: KPDX Portland Intl
United States
More flights between these airports :: More routes between these airports
Route: +OED MOXEE TMBRS2
File this flight plan on PilotEdge
Remarks: RMK / SIMBRIEF
Altitude:
(Current/Filed)
30,000ft
Speed:
(Current/Filed)
426kts
Departed: 08-Mar-20 09:19 AM
Arrived: 08-Mar-20 10:17 AM
Distance/Time
Traveled:
305nm/0:58
Distance/Time
To Go:
Arrived

Flight Plot

Page will automatically refresh every two minutes.

Flight plan parsing failed; only flown route is shown


Map Options




Map Legend


Flown Route
Filed Route
Departure Airport
Arrival Airport
Navaid (VOR, NDB)
Fix

Horizontal Profiles

Position Reports

Time Latitude Longitude Heading Altitude Ground
Speed
08-Mar-20 08:29 40.505324 -122.298951 315 511ft 0kts
08-Mar-20 08:30 40.505324 -122.298951 315 511ft 0kts
08-Mar-20 08:31 40.505324 -122.298951 315 511ft 0kts
08-Mar-20 08:32 40.505324 -122.298951 315 511ft 0kts
08-Mar-20 08:33 40.505324 -122.298951 315 511ft 0kts
08-Mar-20 08:34 40.505324 -122.298951 315 511ft 0kts
08-Mar-20 08:35 40.505324 -122.298951 315 511ft 0kts
08-Mar-20 08:36 40.505324 -122.298951 315 511ft 0kts
08-Mar-20 08:37 40.505324 -122.298951 315 511ft 0kts
08-Mar-20 08:38 40.505324 -122.298951 315 511ft 0kts
08-Mar-20 08:39 40.505324 -122.298951 315 511ft 0kts
08-Mar-20 08:40 40.505324 -122.298951 315 511ft 0kts
08-Mar-20 08:41 40.505324 -122.298951 315 511ft 0kts
08-Mar-20 08:42 40.505324 -122.298951 315 511ft 0kts
08-Mar-20 08:43 40.505324 -122.298951 315 511ft 0kts
08-Mar-20 08:44 40.505324 -122.298951 315 511ft 0kts
08-Mar-20 08:45 40.505324 -122.298951 315 511ft 0kts
08-Mar-20 08:46 40.505324 -122.298951 315 511ft 0kts
08-Mar-20 08:47 40.505324 -122.298951 315 511ft 0kts
08-Mar-20 08:48 40.505324 -122.298951 315 511ft 0kts
08-Mar-20 08:49 40.505324 -122.298951 315 511ft 0kts
08-Mar-20 08:50 40.505324 -122.298951 315 511ft 0kts
08-Mar-20 08:51 40.505324 -122.298951 315 511ft 0kts
08-Mar-20 08:52 40.505324 -122.298951 315 511ft 0kts
08-Mar-20 08:53 40.505324 -122.298951 315 511ft 0kts
08-Mar-20 08:54 40.505324 -122.298951 315 511ft 0kts
08-Mar-20 08:55 40.505324 -122.298951 315 511ft 0kts
08-Mar-20 08:56 40.505324 -122.298951 315 511ft 0kts
08-Mar-20 08:57 40.505324 -122.298951 315 511ft 0kts
08-Mar-20 08:58 40.505324 -122.298951 315 511ft 0kts
08-Mar-20 08:59 40.505324 -122.298951 315 511ft 0kts
08-Mar-20 09:00 40.505324 -122.298951 315 511ft 0kts
08-Mar-20 09:01 40.505324 -122.298951 315 511ft 0kts
08-Mar-20 09:02 40.505324 -122.298951 315 511ft 0kts
08-Mar-20 09:03 40.505324 -122.298951 315 511ft 0kts
08-Mar-20 09:04 40.505324 -122.298951 315 511ft 0kts
08-Mar-20 09:05 40.505324 -122.298951 315 511ft 0kts
08-Mar-20 09:06 40.505324 -122.298951 315 511ft 0kts
08-Mar-20 09:07 40.505306 -122.298927 315 511ft 2kts
08-Mar-20 09:08 40.504881 -122.298368 315 511ft 2kts
08-Mar-20 09:09 40.505044 -122.298317 354 511ft 0kts
08-Mar-20 09:10 40.505044 -122.298317 354 511ft 0kts
08-Mar-20 09:11 40.505044 -122.298317 354 511ft 0kts
08-Mar-20 09:12 40.505044 -122.298317 354 511ft 0kts
08-Mar-20 09:13 40.506556 -122.298507 354 511ft 13kts
08-Mar-20 09:14 40.510335 -122.296286 0 511ft 16kts
08-Mar-20 09:15 40.515158 -122.296285 359 511ft 18kts
08-Mar-20 09:16 40.520120 -122.296071 44 511ft 7kts
08-Mar-20 09:17 40.518454 -122.294865 178 511ft 28kts
08-Mar-20 09:18 40.480662 -122.295789 200 1934ft 167kts
08-Mar-20 09:19 40.487648 -122.336535 352 3179ft 189kts
08-Mar-20 09:20 40.549899 -122.353182 350 4499ft 260kts
08-Mar-20 09:21 40.624310 -122.374053 350 7208ft 279kts
08-Mar-20 09:22 40.703606 -122.396356 349 9699ft 297kts
08-Mar-20 09:23 40.789997 -122.420803 347 11590ft 333kts
08-Mar-20 09:24 40.882542 -122.447138 347 13978ft 345kts
08-Mar-20 09:25 40.978334 -122.474447 346 16172ft 357kts
08-Mar-20 09:26 41.077282 -122.502676 344 18292ft 365kts
08-Mar-20 09:27 41.175138 -122.530664 344 20141ft 374kts
08-Mar-20 09:28 41.278700 -122.560448 343 21796ft 384kts
08-Mar-20 09:29 41.384722 -122.591028 343 23309ft 394kts
08-Mar-20 09:30 41.493634 -122.622554 343 24689ft 404kts
08-Mar-20 09:31 41.605212 -122.655018 342 25978ft 412kts
08-Mar-20 09:33 41.717307 -122.688099 342 27204ft 421kts
08-Mar-20 09:34 41.833060 -122.722042 342 28356ft 429kts
08-Mar-20 09:35 41.951138 -122.756743 342 29426ft 437kts
08-Mar-20 09:36 42.071339 -122.792172 341 30008ft 440kts
08-Mar-20 09:37 42.187568 -122.826521 342 30038ft 463kts
08-Mar-20 09:38 42.317342 -122.865000 342 30052ft 485kts
08-Mar-20 09:39 42.449812 -122.902304 347 30054ft 488kts
08-Mar-20 09:40 42.587163 -122.904552 359 30050ft 497kts
08-Mar-20 09:41 42.725006 -122.890783 359 30049ft 496kts
08-Mar-20 09:42 42.862635 -122.877717 359 30053ft 496kts
08-Mar-20 09:43 43.000054 -122.864700 359 30059ft 495kts
08-Mar-20 09:44 43.132208 -122.852225 359 30068ft 496kts
08-Mar-20 09:45 43.270184 -122.839105 359 30080ft 496kts
08-Mar-20 09:46 43.407965 -122.825941 359 30082ft 496kts
08-Mar-20 09:47 43.545956 -122.812680 358 30082ft 496kts
08-Mar-20 09:48 43.683843 -122.799374 359 30094ft 496kts
08-Mar-20 09:49 43.821666 -122.785993 358 29650ft 488kts
08-Mar-20 09:50 43.955758 -122.773036 0 24759ft 486kts
08-Mar-20 09:50 44.063889 -122.762248 359 24107ft 438kts
08-Mar-20 09:52 44.192025 -122.749720 359 23343ft 397kts
08-Mar-20 09:53 44.302230 -122.738992 0 21402ft 394kts
08-Mar-20 09:54 44.411366 -122.728201 0 19477ft 388kts
08-Mar-20 09:54 44.500792 -122.719329 1 17897ft 382kts
08-Mar-20 09:55 44.604689 -122.708963 1 16094ft 358kts
08-Mar-20 09:57 44.714854 -122.697911 1 14398ft 330kts
08-Mar-20 09:57 44.790504 -122.690298 1 13228ft 325kts
08-Mar-20 09:58 44.879921 -122.681305 2 11837ft 319kts
08-Mar-20 10:00 44.979851 -122.671158 1 10955ft 293kts
08-Mar-20 10:00 45.047185 -122.664360 1 10951ft 288kts
08-Mar-20 10:01 45.123349 -122.656670 1 10939ft 281kts
08-Mar-20 10:02 45.201148 -122.648720 2 9752ft 277kts
08-Mar-20 10:03 45.275470 -122.657589 338 8872ft 269kts
08-Mar-20 10:04 45.344835 -122.695793 338 7629ft 264kts
08-Mar-20 10:05 45.412764 -122.733056 338 6415ft 257kts
08-Mar-20 10:06 45.478845 -122.769379 338 5236ft 251kts
08-Mar-20 10:07 45.539525 -122.802809 337 4962ft 213kts
08-Mar-20 10:08 45.588178 -122.846489 301 4434ft 210kts
08-Mar-20 10:09 45.619178 -122.918351 302 3329ft 208kts
08-Mar-20 10:10 45.666594 -122.933890 35 2984ft 212kts
08-Mar-20 10:11 45.684440 -122.855901 103 2953ft 218kts
08-Mar-20 10:12 45.656062 -122.777387 119 2495ft 221kts
08-Mar-20 10:13 45.628936 -122.707991 119 1419ft 170kts
08-Mar-20 10:14 45.607776 -122.653808 120 617ft 155kts
08-Mar-20 10:15 45.588473 -122.604280 118 38ft 90kts
08-Mar-20 10:16 45.588128 -122.596999 4 38ft 9kts
08-Mar-20 10:17 45.588587 -122.596942 4 38ft 0kts
08-Mar-20 10:18 45.588587 -122.596942 4 38ft 0kts
08-Mar-20 10:19 45.588587 -122.596942 4 38ft 0kts
08-Mar-20 10:20 45.588587 -122.596942 4 38ft 0kts
08-Mar-20 10:21 45.588587 -122.596942 4 38ft 0kts
08-Mar-20 10:22 45.588587 -122.596942 4 38ft 0kts
08-Mar-20 10:23 45.588587 -122.596942 4 38ft 0kts
08-Mar-20 10:24 45.588587 -122.596942 4 38ft 0kts
08-Mar-20 10:25 45.588587 -122.596942 4 38ft 0kts
08-Mar-20 10:26 45.588587 -122.596942 4 38ft 0kts
08-Mar-20 10:27 45.588587 -122.596942 4 38ft 0kts
08-Mar-20 10:28 45.588587 -122.596942 4 38ft 0kts
08-Mar-20 10:29 45.588587 -122.596942 4 38ft 0kts
08-Mar-20 10:30 45.588587 -122.596942 4 38ft 0kts

Navigation Log

Ident Type
Flight plan parsing failed, navigation log unavailable